Time;durP1;ratioP1;P1;durP2;ratioP2;P2;SDS_P1;SDS_P2;PMS_P1;PMS_P2;Temp;Humidity;BMP_temperature;BMP_pressure;BME280_temperature;BME280_humidity;BME280_pressure;Samples;Min_cycle;Max_cycle;Signal;HPM_P1;HPM_P2
2021/07/09 00:01:57;;;;;;;6.75;5.50;;;18.40;91.70;;;;;;3534286;40;20050;-67
2021/07/09 00:04:23;;;;;;;8.02;5.82;;;18.50;91.80;;;;;;3533705;40;20098;-67
2021/07/09 00:06:50;;;;;;;7.00;5.60;;;18.50;91.80;;;;;;3533186;40;20128;-67
2021/07/09 00:09:16;;;;;;;8.23;5.70;;;18.50;91.80;;;;;;3534405;40;20052;-67
2021/07/09 00:11:46;;;;;;;6.68;6.00;;;18.60;91.90;;;;;;3534809;40;20038;-67
2021/07/09 00:14:13;;;;;;;6.95;6.20;;;18.60;91.90;;;;;;3522324;40;20039;-67
2021/07/09 00:16:41;;;;;;;8.48;6.13;;;18.70;91.80;;;;;;3537211;40;20094;-67
2021/07/09 00:19:08;;;;;;;6.65;5.53;;;18.70;91.80;;;;;;3534140;40;20319;-67
2021/07/09 00:21:34;;;;;;;8.52;5.90;;;18.70;91.80;;;;;;3533953;40;20034;-67
2021/07/09 00:24:02;;;;;;;8.02;5.80;;;18.80;91.80;;;;;;3534643;40;20061;-67
2021/07/09 00:26:29;;;;;;;8.23;5.95;;;18.80;91.80;;;;;;3534886;40;20026;-67
2021/07/09 00:28:57;;;;;;;7.25;6.03;;;18.80;91.70;;;;;;3533964;40;20123;-68
2021/07/09 00:31:25;;;;;;;12.77;5.68;;;18.80;91.80;;;;;;3534134;40;20035;-66
2021/07/09 00:33:51;;;;;;;6.20;5.60;;;18.80;91.70;;;;;;3534078;40;20110;-67
2021/07/09 00:36:17;;;;;;;7.18;5.40;;;18.80;91.80;;;;;;3533583;40;20030;-67
2021/07/09 00:38:43;;;;;;;6.38;5.30;;;18.90;91.80;;;;;;3532932;40;20068;-67
2021/07/09 00:41:09;;;;;;;6.68;5.68;;;18.90;91.80;;;;;;3531895;40;20145;-67
2021/07/09 00:43:35;;;;;;;9.32;6.07;;;18.90;91.70;;;;;;3532511;40;20344;-67
2021/07/09 00:46:01;;;;;;;8.52;5.80;;;18.90;91.60;;;;;;3533910;40;20082;-67
2021/07/09 00:48:28;;;;;;;11.32;5.55;;;18.90;91.60;;;;;;3533335;40;20572;-68
2021/07/09 00:51:05;;;;;;;6.95;4.88;;;18.90;91.60;;;;;;3532850;40;20039;-67
2021/07/09 00:53:31;;;;;;;6.07;5.40;;;18.90;91.60;;;;;;3533347;40;20039;-67
2021/07/09 00:55:57;;;;;;;6.30;5.70;;;19.00;91.60;;;;;;3531371;40;20058;-67
2021/07/09 00:58:23;;;;;;;7.38;5.13;;;19.00;91.60;;;;;;3533268;40;20041;-67
2021/07/09 01:00:49;;;;;;;11.05;5.50;;;19.00;91.60;;;;;;3532379;40;20118;-67
2021/07/09 01:03:15;;;;;;;7.80;5.63;;;19.00;91.60;;;;;;3533465;40;20027;-67
2021/07/09 01:05:42;;;;;;;7.65;5.60;;;19.00;91.60;;;;;;3530971;40;20464;-67
2021/07/09 01:08:08;;;;;;;11.68;5.80;;;19.00;91.60;;;;;;3533504;40;20101;-67
2021/07/09 01:10:33;;;;;;;7.00;5.72;;;19.00;91.50;;;;;;3534254;40;20735;-66
2021/07/09 01:12:59;;;;;;;6.07;5.10;;;19.00;91.60;;;;;;3533114;40;20035;-67
2021/07/09 01:15:25;;;;;;;5.45;4.93;;;19.00;91.60;;;;;;3533451;40;20096;-67
2021/07/09 01:17:52;;;;;;;6.38;5.18;;;19.00;91.60;;;;;;3534500;40;20031;-67
2021/07/09 01:20:19;;;;;;;7.30;5.40;;;19.00;91.60;;;;;;3535324;40;20035;-67
2021/07/09 01:22:46;;;;;;;7.40;5.22;;;19.00;91.60;;;;;;3532290;40;20030;-67
2021/07/09 01:25:24;;;;;;;11.63;5.57;;;19.00;91.50;;;;;;3535387;40;20531;-67
2021/07/09 01:28:03;;;;;;;6.53;5.20;;;19.00;91.60;;;;;;3531651;40;20039;-67
2021/07/09 01:30:29;;;;;;;6.30;5.07;;;19.00;91.50;;;;;;3533860;40;20049;-67
2021/07/09 01:32:56;;;;;;;7.75;5.43;;;19.00;91.50;;;;;;3533645;40;20039;-67
2021/07/09 01:35:24;;;;;;;7.65;5.03;;;19.00;91.50;;;;;;3532821;40;20116;-69
2021/07/09 01:38:01;;;;;;;5.82;4.93;;;19.00;91.50;;;;;;3534899;40;20714;-67
2021/07/09 01:40:28;;;;;;;7.70;5.57;;;19.00;91.60;;;;;;3533540;40;20417;-66
2021/07/09 01:42:55;;;;;;;8.07;4.90;;;19.00;91.50;;;;;;3533614;40;20040;-67
2021/07/09 01:45:20;;;;;;;5.97;5.22;;;19.00;91.40;;;;;;3533305;40;20107;-67
2021/07/09 01:47:46;;;;;;;5.53;5.03;;;19.10;91.50;;;;;;3533811;40;20599;-67
2021/07/09 01:50:13;;;;;;;5.50;4.95;;;19.10;91.50;;;;;;3534647;40;20356;-67
2021/07/09 01:52:39;;;;;;;7.25;5.60;;;19.10;91.50;;;;;;3535047;40;20572;-67
2021/07/09 01:55:06;;;;;;;7.65;5.13;;;19.10;91.40;;;;;;3533436;40;20062;-67
2021/07/09 01:57:32;;;;;;;6.53;4.82;;;19.10;91.50;;;;;;3533758;40;20027;-67
2021/07/09 01:59:59;;;;;;;7.35;4.50;;;19.10;91.50;;;;;;3534616;40;20465;-67
2021/07/09 02:02:25;;;;;;;9.55;4.80;;;19.10;91.50;;;;;;3534372;40;20046;-66
2021/07/09 02:04:53;;;;;;;6.68;4.50;;;19.10;91.50;;;;;;3534378;40;20074;-67
2021/07/09 02:07:20;;;;;;;5.80;4.90;;;19.10;91.50;;;;;;3532557;40;20082;-67
2021/07/09 02:09:49;;;;;;;6.07;4.43;;;19.10;91.50;;;;;;3534401;40;20378;-67
2021/07/09 02:12:18;;;;;;;9.13;4.72;;;19.10;91.50;;;;;;3532586;40;20308;-67
2021/07/09 02:14:44;;;;;;;5.20;4.70;;;19.10;91.50;;;;;;3533949;40;20034;-67
2021/07/09 02:17:15;;;;;;;5.00;4.50;;;19.20;91.60;;;;;;3534842;40;20042;-66
2021/07/09 02:19:42;;;;;;;5.38;4.40;;;19.20;91.60;;;;;;3533452;40;20038;-68
2021/07/09 02:22:11;;;;;;;10.90;4.60;;;19.20;91.50;;;;;;3533203;40;20038;-68
2021/07/09 02:24:38;;;;;;;5.85;4.80;;;19.10;91.60;;;;;;3532401;40;20050;-68
2021/07/09 02:27:05;;;;;;;5.28;3.92;;;19.20;91.50;;;;;;3533722;40;20026;-68
2021/07/09 02:29:33;;;;;;;4.78;4.03;;;19.10;91.50;;;;;;3534422;40;20038;-68
2021/07/09 02:32:00;;;;;;;8.70;4.55;;;19.10;91.50;;;;;;3533606;40;20043;-68
2021/07/09 02:34:27;;;;;;;8.85;4.32;;;19.10;91.50;;;;;;3534416;40;20320;-68
2021/07/09 02:36:53;;;;;;;5.03;4.10;;;19.10;91.40;;;;;;3534705;40;20320;-68
2021/07/09 02:39:19;;;;;;;4.30;3.90;;;19.10;91.40;;;;;;3532195;40;20035;-68
2021/07/09 02:41:45;;;;;;;5.60;3.78;;;19.00;91.50;;;;;;3533057;40;20031;-68
2021/07/09 02:44:10;;;;;;;10.82;4.18;;;19.00;91.40;;;;;;3534811;40;20399;-68
2021/07/09 02:46:36;;;;;;;4.20;3.90;;;19.00;91.40;;;;;;3533510;40;20090;-67
2021/07/09 02:49:03;;;;;;;8.35;3.95;;;19.10;91.50;;;;;;3535193;40;20154;-68
2021/07/09 02:51:29;;;;;;;6.18;3.80;;;19.10;91.60;;;;;;3534987;40;20038;-68
2021/07/09 02:53:54;;;;;;;6.45;4.25;;;19.10;91.60;;;;;;3533143;40;20039;-68
2021/07/09 02:56:20;;;;;;;5.28;4.03;;;19.10;91.60;;;;;;3533981;40;20041;-68
2021/07/09 02:58:46;;;;;;;4.18;3.78;;;19.20;91.60;;;;;;3534792;40;20035;-68
2021/07/09 03:01:11;;;;;;;4.78;3.63;;;19.20;91.60;;;;;;3532795;40;20043;-68
2021/07/09 03:03:37;;;;;;;5.50;4.03;;;19.20;91.60;;;;;;3535548;40;20026;-68
2021/07/09 03:06:03;;;;;;;8.68;4.28;;;19.20;91.60;;;;;;3534215;40;20105;-68
2021/07/09 03:08:29;;;;;;;7.18;4.38;;;19.10;91.50;;;;;;3531394;40;20034;-68
2021/07/09 03:10:55;;;;;;;4.95;3.75;;;19.20;91.60;;;;;;3532880;40;20027;-68
2021/07/09 03:13:20;;;;;;;5.80;3.45;;;19.20;91.50;;;;;;3534331;40;20074;-68
2021/07/09 03:15:46;;;;;;;5.03;3.92;;;19.20;91.50;;;;;;3532742;40;20135;-67
2021/07/09 03:18:12;;;;;;;4.63;3.90;;;19.20;91.50;;;;;;3533114;40;20289;-68
2021/07/09 03:20:37;;;;;;;7.13;3.92;;;19.20;91.50;;;;;;3534914;40;20062;-68
2021/07/09 03:23:03;;;;;;;7.10;3.78;;;19.20;91.50;;;;;;3534197;40;20651;-68
2021/07/09 03:25:29;;;;;;;4.18;3.60;;;19.20;91.50;;;;;;3535098;40;20043;-68
2021/07/09 03:27:55;;;;;;;5.07;3.78;;;19.20;91.50;;;;;;3534633;40;20090;-68
2021/07/09 03:30:21;;;;;;;3.88;3.47;;;19.30;91.60;;;;;;3533562;40;20038;-67
2021/07/09 03:32:46;;;;;;;6.80;3.47;;;19.30;91.60;;;;;;3532733;40;20047;-68
2021/07/09 03:35:12;;;;;;;6.32;3.42;;;19.30;91.60;;;;;;3533451;40;20098;-68
2021/07/09 03:37:38;;;;;;;6.90;3.30;;;19.30;91.60;;;;;;3532215;40;20739;-68
2021/07/09 03:40:07;;;;;;;5.30;3.45;;;19.30;91.50;;;;;;3532603;40;20046;-68
2021/07/09 03:42:33;;;;;;;4.68;3.60;;;19.30;91.50;;;;;;3533908;40;20112;-68
2021/07/09 03:44:59;;;;;;;7.25;4.13;;;19.30;91.50;;;;;;3532932;40;20046;-68
2021/07/09 03:47:24;;;;;;;4.10;3.70;;;19.30;91.30;;;;;;3534993;40;20033;-68
2021/07/09 03:49:50;;;;;;;7.30;3.55;;;19.30;91.40;;;;;;3532002;40;20057;-68
2021/07/09 03:52:15;;;;;;;4.25;3.55;;;19.30;91.40;;;;;;3533845;40;20042;-68
2021/07/09 03:54:41;;;;;;;4.88;3.47;;;19.30;91.40;;;;;;3533218;40;20042;-68
2021/07/09 03:57:07;;;;;;;5.57;3.80;;;19.30;91.50;;;;;;3534409;40;20042;-68
2021/07/09 03:59:33;;;;;;;10.55;3.55;;;19.30;91.60;;;;;;3534045;40;20714;-68
2021/07/09 04:01:59;;;;;;;9.07;3.75;;;19.30;91.60;;;;;;3532562;40;20054;-68
2021/07/09 04:04:25;;;;;;;5.88;3.65;;;19.30;91.60;;;;;;3534454;40;20059;-68
2021/07/09 04:06:51;;;;;;;5.95;4.03;;;19.30;91.60;;;;;;3533464;40;20116;-68
2021/07/09 04:09:16;;;;;;;6.90;3.60;;;19.30;91.60;;;;;;3531425;40;20022;-68
2021/07/09 04:11:42;;;;;;;8.93;4.10;;;19.30;91.70;;;;;;3530996;40;20135;-68
2021/07/09 04:14:08;;;;;;;8.07;3.60;;;19.30;92.10;;;;;;3533915;40;20035;-68
2021/07/09 04:16:33;;;;;;;9.50;3.60;;;19.30;91.80;;;;;;3533043;40;20635;-68
2021/07/09 04:18:59;;;;;;;8.07;3.63;;;19.30;91.90;;;;;;3531579;40;20131;-68
2021/07/09 04:21:25;;;;;;;10.02;4.07;;;19.30;91.80;;;;;;3533032;40;20412;-68
2021/07/09 04:23:50;;;;;;;11.98;4.10;;;19.20;91.80;;;;;;3533330;40;20035;-66
2021/07/09 04:26:16;;;;;;;5.97;4.20;;;19.20;91.90;;;;;;3532053;40;20066;-66
2021/07/09 04:28:41;;;;;;;7.28;3.95;;;19.20;91.80;;;;;;3533613;40;20034;-68
2021/07/09 04:31:07;;;;;;;6.43;4.05;;;19.20;91.80;;;;;;3533282;40;20022;-66
2021/07/09 04:33:33;;;;;;;7.10;4.15;;;19.20;91.80;;;;;;3534278;40;20046;-66
2021/07/09 04:35:58;;;;;;;7.13;4.13;;;19.20;91.70;;;;;;3532959;40;20038;-66
2021/07/09 04:38:24;;;;;;;7.53;4.35;;;19.20;91.70;;;;;;3532041;40;20038;-65
2021/07/09 04:40:50;;;;;;;9.52;4.20;;;19.10;91.70;;;;;;3534344;40;20047;-65
2021/07/09 04:43:16;;;;;;;7.25;4.20;;;19.20;91.70;;;;;;3533569;40;20051;-65
2021/07/09 04:45:41;;;;;;;8.30;4.43;;;19.20;91.80;;;;;;3533279;40;20027;-66
2021/07/09 04:48:08;;;;;;;7.68;4.30;;;19.20;91.90;;;;;;3533628;40;20112;-65
2021/07/09 04:50:34;;;;;;;7.43;4.28;;;19.20;91.90;;;;;;3532294;40;20039;-66
2021/07/09 04:53:00;;;;;;;10.02;4.43;;;19.20;91.80;;;;;;3533545;40;20392;-66
2021/07/09 04:55:26;;;;;;;7.50;4.72;;;19.20;91.90;;;;;;3533795;40;20041;-68
2021/07/09 04:57:51;;;;;;;9.05;4.70;;;19.20;91.90;;;;;;3532473;40;20035;-68
2021/07/09 05:00:17;;;;;;;10.15;4.65;;;19.20;91.90;;;;;;3534147;40;20056;-68
2021/07/09 05:02:43;;;;;;;8.57;4.55;;;19.20;91.90;;;;;;3534930;40;20072;-68
2021/07/09 05:05:14;;;;;;;6.85;4.25;;;19.20;91.90;;;;;;3534857;40;20825;-68
2021/07/09 05:07:40;;;;;;;5.88;4.70;;;19.20;91.90;;;;;;3533934;40;20034;-68
2021/07/09 05:10:06;;;;;;;8.85;4.90;;;19.20;91.90;;;;;;3532849;40;20031;-68
2021/07/09 05:12:32;;;;;;;6.38;5.00;;;19.20;91.90;;;;;;3533013;40;20066;-68
2021/07/09 05:14:58;;;;;;;6.57;4.50;;;19.20;91.90;;;;;;3533590;40;20117;-68
2021/07/09 05:17:24;;;;;;;6.38;4.82;;;19.20;92.00;;;;;;3534274;40;20050;-68
2021/07/09 05:19:53;;;;;;;8.10;5.80;;;19.30;92.00;;;;;;3533949;40;20089;-68
2021/07/09 05:22:23;;;;;;;7.20;4.97;;;19.30;92.00;;;;;;3531607;40;20035;-68
2021/07/09 05:24:54;;;;;;;8.27;5.28;;;19.30;92.10;;;;;;3534934;40;20047;-68
2021/07/09 05:27:24;;;;;;;6.53;4.97;;;19.30;92.10;;;;;;3531628;40;20027;-68
2021/07/09 05:29:49;;;;;;;7.50;5.50;;;19.30;92.00;;;;;;3533878;40;20033;-67
2021/07/09 05:32:22;;;;;;;8.23;5.70;;;19.30;92.10;;;;;;3533914;40;20026;-67
2021/07/09 05:34:49;;;;;;;9.27;6.05;;;19.30;92.10;;;;;;3532425;40;20615;-68
2021/07/09 05:37:14;;;;;;;10.02;6.25;;;19.30;92.10;;;;;;3535147;40;20030;-68
2021/07/09 05:39:40;;;;;;;8.52;5.60;;;19.30;92.10;;;;;;3532242;40;20532;-68
2021/07/09 05:42:06;;;;;;;9.32;5.97;;;19.30;92.10;;;;;;3532300;40;20751;-68
2021/07/09 05:44:32;;;;;;;8.40;6.25;;;19.40;92.10;;;;;;3533293;40;20041;-68
2021/07/09 05:46:58;;;;;;;7.60;6.13;;;19.40;92.20;;;;;;3533889;40;20039;-68
2021/07/09 05:49:24;;;;;;;7.88;5.82;;;19.40;92.20;;;;;;3534987;40;20828;-68
2021/07/09 05:51:50;;;;;;;7.50;6.07;;;19.40;92.20;;;;;;3531731;40;20035;-68
2021/07/09 05:54:16;;;;;;;9.40;6.05;;;19.40;92.20;;;;;;3535462;40;20050;-68
2021/07/09 05:56:42;;;;;;;6.25;5.50;;;19.40;92.20;;;;;;3534292;40;20046;-68
2021/07/09 05:59:08;;;;;;;8.05;6.45;;;19.40;92.30;;;;;;3533717;40;20447;-68
2021/07/09 06:01:34;;;;;;;6.75;6.03;;;19.40;92.20;;;;;;3533548;40;20066;-68
2021/07/09 06:03:59;;;;;;;6.97;6.10;;;19.50;92.20;;;;;;3532202;40;20019;-69
2021/07/09 06:06:25;;;;;;;6.53;5.70;;;19.50;92.20;;;;;;3532991;40;20067;-68
2021/07/09 06:08:51;;;;;;;10.82;5.63;;;19.50;92.20;;;;;;3534184;40;20035;-68
2021/07/09 06:11:16;;;;;;;6.90;5.60;;;19.50;92.20;;;;;;3531201;40;20042;-68
2021/07/09 06:13:42;;;;;;;6.38;5.78;;;19.60;92.20;;;;;;3534544;40;20296;-68
2021/07/09 06:16:08;;;;;;;6.65;5.97;;;19.60;92.20;;;;;;3534766;40;20074;-68
2021/07/09 06:18:34;;;;;;;6.85;6.10;;;19.60;92.30;;;;;;3534914;40;20452;-68
2021/07/09 06:21:00;;;;;;;7.05;5.90;;;19.60;92.20;;;;;;3534329;40;20042;-68
2021/07/09 06:23:27;;;;;;;6.15;5.65;;;19.60;92.20;;;;;;3533903;40;20127;-68
2021/07/09 06:25:54;;;;;;;6.60;6.00;;;19.70;92.30;;;;;;3533639;40;20035;-68
2021/07/09 06:28:20;;;;;;;7.05;6.00;;;19.70;92.30;;;;;;3535402;40;20042;-68
2021/07/09 06:30:46;;;;;;;6.35;5.47;;;19.70;92.30;;;;;;3535230;40;20034;-66
2021/07/09 06:33:12;;;;;;;6.03;5.18;;;19.70;92.30;;;;;;3533819;40;20047;-66
2021/07/09 06:35:39;;;;;;;7.20;5.53;;;19.70;92.30;;;;;;3534057;40;20031;-66
2021/07/09 06:38:06;;;;;;;7.80;5.85;;;19.70;92.30;;;;;;3534422;40;20427;-66
2021/07/09 06:40:32;;;;;;;5.82;5.22;;;19.70;92.30;;;;;;3533627;40;20084;-66
2021/07/09 06:42:58;;;;;;;6.72;5.85;;;19.80;92.30;;;;;;3533918;40;20030;-66
2021/07/09 06:45:24;;;;;;;6.32;5.63;;;19.80;92.30;;;;;;3536058;40;20026;-66
2021/07/09 06:47:50;;;;;;;11.25;6.60;;;19.80;92.30;;;;;;3535901;40;20412;-66
2021/07/09 06:50:17;;;;;;;9.80;5.65;;;19.90;92.30;;;;;;3535249;40;20142;-66
2021/07/09 06:52:44;;;;;;;6.15;5.55;;;19.90;92.30;;;;;;3534973;40;20033;-67
2021/07/09 06:55:11;;;;;;;6.32;5.35;;;20.00;92.20;;;;;;3532817;40;20087;-67
2021/07/09 06:57:38;;;;;;;5.97;5.28;;;20.00;92.20;;;;;;3535810;40;20030;-67
2021/07/09 07:00:06;;;;;;;5.38;4.88;;;20.00;92.20;;;;;;3535338;40;20026;-66
2021/07/09 07:02:33;;;;;;;8.90;5.75;;;20.00;92.20;;;;;;3534762;40;20042;-66
2021/07/09 07:05:00;;;;;;;8.27;5.43;;;20.00;92.20;;;;;;3533287;40;20093;-66
2021/07/09 07:07:27;;;;;;;6.85;5.20;;;20.10;92.20;;;;;;3534751;40;20027;-66
2021/07/09 07:09:52;;;;;;;6.45;5.65;;;20.10;92.20;;;;;;3535705;40;20030;-67
2021/07/09 07:12:18;;;;;;;6.75;5.68;;;20.10;92.20;;;;;;3533416;40;20046;-67
2021/07/09 07:14:44;;;;;;;6.07;5.32;;;20.10;92.20;;;;;;3534607;40;20260;-67
2021/07/09 07:17:10;;;;;;;6.63;5.22;;;20.20;92.20;;;;;;3533336;40;20049;-66
2021/07/09 07:19:36;;;;;;;6.32;5.70;;;20.20;92.20;;;;;;3532939;40;20035;-67
2021/07/09 07:22:02;;;;;;;6.07;5.47;;;20.20;92.30;;;;;;3533458;40;20665;-67
2021/07/09 07:24:29;;;;;;;6.85;5.97;;;20.20;92.30;;;;;;3534500;40;20082;-66
2021/07/09 07:26:56;;;;;;;6.30;5.70;;;20.20;91.90;;;;;;3534592;40;20031;-66
2021/07/09 07:29:21;;;;;;;10.38;6.63;;;20.20;92.00;;;;;;3532547;40;20049;-66
2021/07/09 07:31:47;;;;;;;10.10;6.68;;;20.20;92.10;;;;;;3534080;40;20034;-66
2021/07/09 07:34:13;;;;;;;15.05;7.13;;;20.20;92.20;;;;;;3536489;40;20082;-66
2021/07/09 07:36:38;;;;;;;7.30;6.18;;;20.20;92.30;;;;;;3534352;40;20061;-66
2021/07/09 07:39:04;;;;;;;10.10;6.45;;;20.20;92.40;;;;;;3533038;40;20038;-66
2021/07/09 07:41:30;;;;;;;6.65;6.05;;;20.20;92.50;;;;;;3534111;40;20045;-65
2021/07/09 07:43:56;;;;;;;6.53;5.60;;;20.20;92.60;;;;;;3534743;40;20592;-66
2021/07/09 07:46:27;;;;;;;7.13;5.45;;;20.20;92.50;;;;;;3533790;40;20054;-67
2021/07/09 07:48:53;;;;;;;6.40;5.05;;;20.20;92.60;;;;;;3534941;40;20073;-66
2021/07/09 07:51:18;;;;;;;6.47;5.28;;;20.20;92.50;;;;;;3534847;40;20853;-66
2021/07/09 07:53:44;;;;;;;9.23;5.68;;;20.20;92.60;;;;;;3532626;40;20412;-65
2021/07/09 07:56:10;;;;;;;9.10;6.43;;;20.30;92.60;;;;;;3534470;40;20031;-66
2021/07/09 07:58:37;;;;;;;6.63;5.93;;;20.30;92.60;;;;;;3533860;40;20088;-66
2021/07/09 08:01:04;;;;;;;6.65;5.03;;;20.40;92.60;;;;;;3532203;40;20027;-66
2021/07/09 08:03:30;;;;;;;5.53;4.82;;;20.30;92.50;;;;;;3533303;40;20031;-66
2021/07/09 08:05:56;;;;;;;8.77;5.10;;;20.40;92.50;;;;;;3533647;40;20034;-66
2021/07/09 08:08:22;;;;;;;5.70;4.97;;;20.40;92.50;;;;;;3532478;40;20031;-66
2021/07/09 08:10:48;;;;;;;4.75;4.35;;;20.40;92.40;;;;;;3533322;40;20527;-66
2021/07/09 08:13:14;;;;;;;6.07;5.00;;;20.50;92.50;;;;;;3531250;40;20030;-64
2021/07/09 08:15:39;;;;;;;6.45;4.28;;;20.50;92.50;;;;;;3531813;40;20050;-73
2021/07/09 08:18:05;;;;;;;4.70;4.30;;;20.50;92.40;;;;;;3533133;40;20022;-69
2021/07/09 08:20:32;;;;;;;4.82;4.43;;;20.60;92.40;;;;;;3532271;40;20059;-67
2021/07/09 08:22:58;;;;;;;5.15;3.85;;;20.60;92.30;;;;;;3534104;40;20042;-67
2021/07/09 08:25:24;;;;;;;4.00;3.67;;;20.60;92.30;;;;;;3533664;40;20038;-67
2021/07/09 08:27:50;;;;;;;5.40;3.60;;;20.50;92.30;;;;;;3525181;40;20043;-67
2021/07/09 08:30:16;;;;;;;3.67;3.42;;;20.60;92.30;;;;;;3534108;40;20754;-67
2021/07/09 08:32:41;;;;;;;3.47;3.17;;;20.60;92.30;;;;;;3531748;40;20040;-68
2021/07/09 08:35:08;;;;;;;3.40;3.10;;;20.50;92.20;;;;;;3533655;40;20034;-67
2021/07/09 08:37:34;;;;;;;3.53;3.28;;;20.60;92.20;;;;;;3534669;40;20038;-68
2021/07/09 08:40:00;;;;;;;4.60;3.03;;;20.60;92.20;;;;;;3534322;40;20031;-67
2021/07/09 08:42:26;;;;;;;4.13;3.22;;;20.50;92.20;;;;;;3534347;40;20066;-67
2021/07/09 08:44:52;;;;;;;6.75;4.00;;;20.50;92.30;;;;;;3533366;40;20043;-67
2021/07/09 08:47:19;;;;;;;3.38;3.08;;;20.60;92.30;;;;;;3533849;40;20031;-67
2021/07/09 08:49:47;;;;;;;3.08;2.80;;;20.60;92.20;;;;;;3535339;40;20047;-67
2021/07/09 08:52:13;;;;;;;3.35;2.80;;;20.60;92.10;;;;;;3533433;40;20065;-67
2021/07/09 08:54:39;;;;;;;2.85;2.65;;;20.60;92.10;;;;;;3534749;40;20411;-68
2021/07/09 08:57:05;;;;;;;3.22;2.92;;;20.70;92.10;;;;;;3529107;40;20089;-66
2021/07/09 08:59:30;;;;;;;3.50;3.20;;;20.60;92.10;;;;;;3527512;40;20047;-66
2021/07/09 09:01:59;;;;;;;4.18;2.90;;;20.60;92.20;;;;;;3529754;40;20039;-66
2021/07/09 09:04:30;;;;;;;2.55;2.35;;;20.60;92.20;;;;;;3531164;40;20066;-67
2021/07/09 09:07:11;;;;;;;5.22;2.85;;;20.60;92.20;;;;;;3532886;40;20411;-67
2021/07/09 09:09:40;;;;;;;3.53;2.88;;;20.60;92.10;;;;;;3532919;40;20103;-67
2021/07/09 09:12:11;;;;;;;6.20;3.75;;;20.60;92.20;;;;;;3530658;40;20030;-65
2021/07/09 09:14:45;;;;;;;4.07;3.30;;;20.70;92.20;;;;;;3533620;40;20042;-66
2021/07/09 09:17:31;;;;;;;3.60;3.30;;;20.70;92.30;;;;;;3532420;40;20034;-67
2021/07/09 09:20:27;;;;;;;7.22;3.78;;;20.70;92.10;;;;;;3533031;40;20816;-67
2021/07/09 09:22:54;;;;;;;3.80;3.50;;;20.60;92.20;;;;;;3532509;40;20186;-67
2021/07/09 09:25:26;;;;;;;6.32;4.35;;;20.60;92.00;;;;;;3528555;40;20490;-67
2021/07/09 09:27:56;;;;;;;4.18;3.88;;;20.60;92.00;;;;;;3534704;40;20026;-65
2021/07/09 09:30:22;;;;;;;4.28;3.92;;;20.70;92.20;;;;;;3534521;40;20034;-66
2021/07/09 09:32:49;;;;;;;3.83;3.45;;;20.70;92.10;;;;;;3532100;40;20034;-66
2021/07/09 09:35:26;;;;;;;5.38;3.63;;;20.80;91.90;;;;;;3532529;40;20053;-66
2021/07/09 09:37:57;;;;;;;4.97;3.50;;;20.90;91.80;;;;;;3532670;40;20045;-66
2021/07/09 09:40:25;;;;;;;7.32;3.83;;;20.90;91.60;;;;;;3533388;40;20038;-66
2021/07/09 09:42:52;;;;;;;4.40;4.00;;;21.00;91.30;;;;;;3535282;40;20055;-66
2021/07/09 09:45:20;;;;;;;3.38;3.08;;;21.10;91.40;;;;;;3531591;40;20220;-66
2021/07/09 09:47:47;;;;;;;3.00;2.70;;;21.20;91.10;;;;;;3532548;40;20038;-65
2021/07/09 09:50:20;;;;;;;3.13;2.92;;;21.30;90.70;;;;;;3533680;40;20034;-66
2021/07/09 09:52:53;;;;;;;4.43;3.03;;;21.30;90.50;;;;;;3531214;40;20049;-66
2021/07/09 09:55:23;;;;;;;3.47;3.17;;;21.30;90.50;;;;;;3533679;40;20124;-66
2021/07/09 09:58:18;;;;;;;4.03;2.70;;;21.40;90.40;;;;;;3532396;40;20023;-65
2021/07/09 10:00:51;;;;;;;3.10;2.80;;;21.50;90.30;;;;;;3530192;40;20424;-66
2021/07/09 10:03:17;;;;;;;3.20;2.90;;;21.50;90.20;;;;;;3532858;40;20038;-66
2021/07/09 10:05:45;;;;;;;3.45;3.15;;;21.60;90.20;;;;;;3536066;40;20042;-66
2021/07/09 10:08:16;;;;;;;4.72;3.88;;;21.60;90.20;;;;;;3534029;40;20124;-66
2021/07/09 10:10:43;;;;;;;3.72;3.33;;;21.70;89.90;;;;;;3532951;40;20394;-66
2021/07/09 10:13:15;;;;;;;4.93;2.65;;;21.60;89.30;;;;;;3534351;40;20098;-66
2021/07/09 10:15:42;;;;;;;4.15;3.15;;;21.70;88.50;;;;;;3531985;40;20027;-67
2021/07/09 10:18:15;;;;;;;4.35;2.90;;;21.70;89.20;;;;;;3532163;40;20092;-66
2021/07/09 10:20:43;;;;;;;4.60;3.90;;;21.70;89.20;;;;;;3530140;40;20065;-66
2021/07/09 10:23:10;;;;;;;5.43;3.03;;;21.70;89.70;;;;;;3533930;40;20039;-67
2021/07/09 10:25:38;;;;;;;2.75;2.55;;;21.70;89.40;;;;;;3532612;40;20049;-65
2021/07/09 10:28:06;;;;;;;3.65;2.90;;;21.70;89.20;;;;;;3534162;40;20019;-66
2021/07/09 10:30:38;;;;;;;3.78;2.88;;;21.70;89.30;;;;;;3534650;40;20026;-66
2021/07/09 10:33:27;;;;;;;4.47;3.95;;;21.70;89.50;;;;;;3536028;40;20101;-66
2021/07/09 10:35:53;;;;;;;3.63;2.80;;;21.60;89.50;;;;;;3532623;40;20135;-66
2021/07/09 10:38:22;;;;;;;2.50;2.30;;;21.50;88.90;;;;;;3531867;40;20043;-65
2021/07/09 10:40:49;;;;;;;3.67;2.75;;;21.50;89.50;;;;;;3533053;40;20054;-66
2021/07/09 10:43:16;;;;;;;4.05;2.80;;;21.50;89.80;;;;;;3529018;40;20027;-66
2021/07/09 10:45:43;;;;;;;5.03;2.65;;;21.50;89.50;;;;;;3532832;40;20035;-65
2021/07/09 10:48:11;;;;;;;3.28;2.65;;;21.50;89.40;;;;;;3534919;40;20034;-65
2021/07/09 10:50:37;;;;;;;3.70;2.33;;;21.50;89.00;;;;;;3531021;40;20503;-66
2021/07/09 10:53:10;;;;;;;3.03;2.42;;;21.50;89.00;;;;;;3532754;40;20038;-66
2021/07/09 10:55:50;;;;;;;2.00;1.90;;;21.40;88.70;;;;;;3532917;40;20046;-66
2021/07/09 10:58:33;;;;;;;2.88;1.88;;;21.40;89.10;;;;;;3532235;40;20053;-66
2021/07/09 11:01:05;;;;;;;3.58;2.05;;;21.40;89.00;;;;;;3531981;40;20088;-64
2021/07/09 11:03:40;;;;;;;3.80;2.20;;;21.40;89.00;;;;;;3534450;40;20030;-64
2021/07/09 11:06:08;;;;;;;1.80;1.67;;;21.40;88.50;;;;;;3533131;40;20315;-64
2021/07/09 11:08:33;;;;;;;4.13;1.90;;;21.30;88.90;;;;;;3527728;40;20504;-64
2021/07/09 11:11:09;;;;;;;2.10;1.60;;;21.30;88.60;;;;;;3525419;40;20047;-65
2021/07/09 11:13:53;;;;;;;;;;;21.30;89.00;;;;;;3525239;40;20034;-64
2021/07/09 11:16:22;;;;;;;3.42;1.50;;;21.20;89.10;;;;;;3524678;40;20696;-65
2021/07/09 11:18:53;;;;;;;3.58;1.80;;;21.10;89.50;;;;;;3523671;40;20042;-64
2021/07/09 11:21:31;;;;;;;2.65;1.70;;;21.20;89.10;;;;;;3526127;40;20095;-65
2021/07/09 11:24:01;;;;;;;3.83;1.65;;;21.30;88.90;;;;;;3523356;40;20340;-65
2021/07/09 11:26:31;;;;;;;1.92;1.70;;;21.30;88.30;;;;;;3526041;40;20757;-66
2021/07/09 11:28:58;;;;;;;2.65;1.83;;;21.30;88.60;;;;;;3525662;40;20099;-66
2021/07/09 11:31:34;;;;;;;2.28;1.67;;;21.30;89.10;;;;;;3527164;40;20364;-65
2021/07/09 11:34:04;;;;;;;3.95;1.90;;;21.30;89.50;;;;;;3528031;40;20115;-69
2021/07/09 11:36:43;;;;;;;3.35;2.05;;;21.30;89.20;;;;;;3529558;40;20082;-66
2021/07/09 11:39:17;;;;;;;4.00;1.98;;;21.30;88.70;;;;;;3526999;40;20047;-66
2021/07/09 11:41:54;;;;;;;3.03;1.90;;;21.20;89.50;;;;;;3533164;40;20045;-66
2021/07/09 11:44:22;;;;;;;4.07;1.92;;;21.30;89.10;;;;;;3529628;40;20047;-66
2021/07/09 11:46:53;;;;;;;2.88;1.80;;;21.20;88.50;;;;;;3528796;40;20039;-66
2021/07/09 11:49:24;;;;;;;3.53;2.50;;;21.30;88.90;;;;;;3527946;40;20570;-66
2021/07/09 11:51:56;;;;;;;2.28;2.03;;;21.20;88.50;;;;;;3524723;40;20110;-66
2021/07/09 11:54:28;;;;;;;2.50;2.10;;;21.20;88.80;;;;;;3537021;40;20087;-66
2021/07/09 11:56:56;;;;;;;2.30;2.10;;;21.20;89.20;;;;;;3528609;40;20034;-66
2021/07/09 11:59:22;;;;;;;2.50;2.30;;;21.20;89.60;;;;;;3531816;40;20061;-66
2021/07/09 12:02:08;;;;;;;6.13;2.20;;;21.20;89.60;;;;;;3531291;40;20043;-66
2021/07/09 12:04:39;;;;;;;3.58;2.10;;;21.20;89.40;;;;;;3530253;40;20039;-66
2021/07/09 12:07:20;;;;;;;2.67;2.20;;;21.20;89.80;;;;;;3531146;40;20054;-66
2021/07/09 12:09:58;;;;;;;3.53;2.28;;;21.20;89.30;;;;;;3531797;40;20121;-66
2021/07/09 12:12:26;;;;;;;5.97;2.47;;;21.20;89.80;;;;;;3532370;40;20733;-66
2021/07/09 12:15:09;;;;;;;2.60;2.40;;;21.20;90.00;;;;;;3533587;40;20034;-67
2021/07/09 12:17:39;;;;;;;3.47;2.60;;;21.20;89.80;;;;;;3529647;40;20427;-66
2021/07/09 12:20:06;;;;;;;7.90;2.47;;;21.20;89.60;;;;;;3531356;40;20132;-65
2021/07/09 12:22:52;;;;;;;3.50;2.22;;;21.30;89.30;;;;;;3533314;40;20035;-66
2021/07/09 12:25:23;;;;;;;3.20;2.10;;;21.40;89.30;;;;;;3530610;40;20035;-66
2021/07/09 12:27:50;;;;;;;3.95;1.92;;;21.50;89.30;;;;;;3531740;40;20035;-66
2021/07/09 12:30:22;;;;;;;2.13;2.00;;;21.50;89.30;;;;;;3531873;40;20053;-66
2021/07/09 12:32:53;;;;;;;4.05;2.17;;;21.50;89.30;;;;;;3530492;40;20028;-66
2021/07/09 12:35:20;;;;;;;3.28;2.10;;;21.50;89.00;;;;;;3532725;40;20074;-66
2021/07/09 12:37:59;;;;;;;3.95;2.00;;;21.50;88.40;;;;;;3529627;40;20037;-66
2021/07/09 12:40:37;;;;;;;5.10;2.80;;;21.50;88.70;;;;;;3533296;40;20396;-66
2021/07/09 12:43:27;;;;;;;5.78;2.60;;;21.50;89.00;;;;;;3523539;40;20071;-66
2021/07/09 12:46:00;;;;;;;2.42;2.22;;;21.50;89.00;;;;;;3531942;40;20530;-66
2021/07/09 12:48:44;;;;;;;4.45;2.45;;;21.40;89.90;;;;;;3531751;40;20038;-67
2021/07/09 12:51:20;;;;;;;4.63;2.78;;;21.40;90.00;;;;;;3529329;40;20053;-66